Time;durP1;ratioP1;P1;durP2;ratioP2;P2;SDS_P1;SDS_P2;PMS_P1;PMS_P2;Temp;Humidity;BMP_temperature;BMP_pressure;BME280_temperature;BME280_humidity;BME280_pressure;Samples;Min_cycle;Max_cycle;Signal;HPM_P1;HPM_P2
2023/09/28 00:01:20;;;;;;;6.65;4.05;;;;;;;;;;5041198;28;20033;-74
2023/09/28 00:03:47;;;;;;;7.22;4.50;;;;;;;;;;5027408;28;20042;-74
2023/09/28 00:06:13;;;;;;;7.53;3.83;;;;;;;;;;5020167;28;20056;-74
2023/09/28 00:08:39;;;;;;;10.50;4.13;;;;;;;;;;5025743;28;20071;-74
2023/09/28 00:11:05;;;;;;;7.47;4.13;;;;;;;;;;5026522;28;20152;-74
2023/09/28 00:13:30;;;;;;;8.95;4.22;;;;;;;;;;5024007;28;20033;-74
2023/09/28 00:15:56;;;;;;;5.30;4.05;;;;;;;;;;5023891;28;20049;-74
2023/09/28 00:18:21;;;;;;;6.38;3.78;;;;;;;;;;5026044;28;20041;-73
2023/09/28 00:20:47;;;;;;;7.82;3.85;;;;;;;;;;5025275;28;20431;-74
2023/09/28 00:23:12;;;;;;;8.18;4.70;;;;;;;;;;5026136;28;20486;-74
2023/09/28 00:25:38;;;;;;;6.65;4.47;;;;;;;;;;5025010;28;20091;-74
2023/09/28 00:28:05;;;;;;;7.03;3.72;;;;;;;;;;5025567;28;20037;-74
2023/09/28 00:30:31;;;;;;;9.90;4.38;;;;;;;;;;5023933;28;20037;-74
2023/09/28 00:32:57;;;;;;;10.82;4.57;;;;;;;;;;5025115;28;20041;-74
2023/09/28 00:35:23;;;;;;;6.00;4.30;;;;;;;;;;5023710;28;20087;-74
2023/09/28 00:37:52;;;;;;;10.27;4.10;;;;;;;;;;5025001;28;20033;-74
2023/09/28 00:40:27;;;;;;;7.68;4.15;;;;;;;;;;5025033;28;20112;-74
2023/09/28 00:42:54;;;;;;;7.65;3.92;;;;;;;;;;5024053;28;20099;-74
2023/09/28 00:45:21;;;;;;;7.68;4.40;;;;;;;;;;5024818;28;20052;-74
2023/09/28 00:47:49;;;;;;;8.57;4.32;;;;;;;;;;5023979;28;20751;-74
2023/09/28 00:50:15;;;;;;;9.68;4.10;;;;;;;;;;5025078;28;20052;-74
2023/09/28 00:52:51;;;;;;;6.70;4.13;;;;;;;;;;5023993;28;20554;-74
2023/09/28 00:55:19;;;;;;;6.65;3.72;;;;;;;;;;5024661;28;20033;-73
2023/09/28 00:57:46;;;;;;;9.10;4.20;;;;;;;;;;5024752;28;20064;-74
2023/09/28 01:00:18;;;;;;;8.18;4.65;;;;;;;;;;5024941;28;20045;-74
2023/09/28 01:02:51;;;;;;;8.17;4.53;;;;;;;;;;5018929;28;20047;-74
2023/09/28 01:05:20;;;;;;;5.45;4.03;;;;;;;;;;5018578;28;20503;-74
2023/09/28 01:07:46;;;;;;;6.55;4.13;;;;;;;;;;5024653;28;20048;-74
2023/09/28 01:10:14;;;;;;;10.20;4.57;;;;;;;;;;5023959;28;20033;-74
2023/09/28 01:12:40;;;;;;;7.03;4.30;;;;;;;;;;5024152;28;20034;-74
2023/09/28 01:15:10;;;;;;;7.43;4.55;;;;;;;;;;5022999;28;20049;-74
2023/09/28 01:17:36;;;;;;;7.63;4.72;;;;;;;;;;5012266;28;20088;-74
2023/09/28 01:20:19;;;;;;;7.40;4.43;;;;;;;;;;5025360;28;20021;-74
2023/09/28 01:22:50;;;;;;;7.03;4.27;;;;;;;;;;5029292;28;20041;-74
2023/09/28 01:25:19;;;;;;;7.60;4.00;;;;;;;;;;5034881;28;20709;-74
2023/09/28 01:27:46;;;;;;;7.85;4.30;;;;;;;;;;5028157;28;20753;-74
2023/09/28 01:30:12;;;;;;;10.25;4.60;;;;;;;;;;5022849;28;20088;-74
2023/09/28 01:32:38;;;;;;;8.00;4.78;;;;;;;;;;5022863;28;20029;-74
2023/09/28 01:35:04;;;;;;;11.77;5.03;;;;;;;;;;5022565;28;20501;-74
2023/09/28 01:37:39;;;;;;;10.10;4.95;;;;;;;;;;5024005;28;20072;-74
2023/09/28 01:40:05;;;;;;;11.88;5.45;;;;;;;;;;5016712;28;20053;-74
2023/09/28 01:42:30;;;;;;;9.35;5.15;;;;;;;;;;5023899;28;20041;-74
2023/09/28 01:44:56;;;;;;;12.57;4.70;;;;;;;;;;5023492;28;20050;-74
2023/09/28 01:47:21;;;;;;;8.35;4.90;;;;;;;;;;5022804;28;20028;-74
2023/09/28 01:49:46;;;;;;;9.35;5.20;;;;;;;;;;5023593;28;20664;-74
2023/09/28 01:52:12;;;;;;;11.13;5.45;;;;;;;;;;5023404;28;20029;-74
2023/09/28 01:54:37;;;;;;;7.50;4.80;;;;;;;;;;5023078;28;20029;-74
2023/09/28 01:57:02;;;;;;;7.60;4.47;;;;;;;;;;5023632;28;20047;-74
2023/09/28 01:59:28;;;;;;;10.38;5.45;;;;;;;;;;5022660;28;20570;-74
2023/09/28 02:01:53;;;;;;;15.95;5.90;;;;;;;;;;5023658;28;20486;-73
2023/09/28 02:04:19;;;;;;;10.95;5.22;;;;;;;;;;5019496;28;20038;-74
2023/09/28 02:06:44;;;;;;;7.28;4.70;;;;;;;;;;5023273;28;20048;-73
2023/09/28 02:09:11;;;;;;;8.20;5.20;;;;;;;;;;5024006;28;20033;-74
2023/09/28 02:11:43;;;;;;;11.07;5.30;;;;;;;;;;5016976;28;20026;-74
2023/09/28 02:14:10;;;;;;;7.47;4.95;;;;;;;;;;5022971;28;20024;-74
2023/09/28 02:16:35;;;;;;;8.90;5.00;;;;;;;;;;5021395;28;20399;-74
2023/09/28 02:19:00;;;;;;;7.70;5.38;;;;;;;;;;5016382;28;20574;-73
2023/09/28 02:21:26;;;;;;;8.40;5.15;;;;;;;;;;5022256;28;20045;-74
2023/09/28 02:23:51;;;;;;;8.63;5.13;;;;;;;;;;5022001;28;20033;-74
2023/09/28 02:26:17;;;;;;;11.50;5.72;;;;;;;;;;5018144;28;20454;-74
2023/09/28 02:28:42;;;;;;;9.40;5.45;;;;;;;;;;5022063;28;20042;-74
2023/09/28 02:31:08;;;;;;;9.48;5.20;;;;;;;;;;5023544;28;20040;-74
2023/09/28 02:33:33;;;;;;;9.13;5.40;;;;;;;;;;5023030;28;20087;-74
2023/09/28 02:35:59;;;;;;;9.90;5.20;;;;;;;;;;5023418;28;20124;-74
2023/09/28 02:38:24;;;;;;;11.38;5.28;;;;;;;;;;5023808;28;20029;-74
2023/09/28 02:40:50;;;;;;;8.93;5.10;;;;;;;;;;5021850;28;20136;-74
2023/09/28 02:43:15;;;;;;;11.32;5.47;;;;;;;;;;5024122;28;20125;-74
2023/09/28 02:45:41;;;;;;;8.50;4.90;;;;;;;;;;5023451;28;20046;-73
2023/09/28 02:48:08;;;;;;;10.43;5.63;;;;;;;;;;5029804;28;20073;-73
2023/09/28 02:50:34;;;;;;;8.73;4.97;;;;;;;;;;5037924;28;20048;-74
2023/09/28 02:52:59;;;;;;;9.90;5.38;;;;;;;;;;5031597;28;20029;-74
2023/09/28 02:55:25;;;;;;;8.40;4.85;;;;;;;;;;5024879;28;20033;-74
2023/09/28 02:57:50;;;;;;;11.10;4.95;;;;;;;;;;5022209;28;20037;-74
2023/09/28 03:02:47;;;;;;;7.28;4.43;;;;;;;;;;5023398;28;20523;-74
2023/09/28 03:05:16;;;;;;;11.60;5.00;;;;;;;;;;5023417;28;20034;-74
2023/09/28 03:07:42;;;;;;;10.25;4.63;;;;;;;;;;5022957;28;20129;-74
2023/09/28 03:10:11;;;;;;;9.68;4.22;;;;;;;;;;5022688;28;20411;-74
2023/09/28 03:12:37;;;;;;;7.43;3.97;;;;;;;;;;5024857;28;20045;-74
2023/09/28 03:15:10;;;;;;;5.40;3.83;;;;;;;;;;5026618;28;20049;-74
2023/09/28 03:17:36;;;;;;;9.57;4.10;;;;;;;;;;5026523;28;20033;-74
2023/09/28 03:20:09;;;;;;;10.32;4.20;;;;;;;;;;5025740;28;20132;-74
2023/09/28 03:22:34;;;;;;;10.10;4.10;;;;;;;;;;5026238;28;20080;-74
2023/09/28 03:25:01;;;;;;;10.93;4.05;;;;;;;;;;5026544;28;20037;-74
2023/09/28 03:27:26;;;;;;;8.27;3.63;;;;;;;;;;5026145;28;20034;-74
2023/09/28 03:29:52;;;;;;;8.63;3.28;;;;;;;;;;5025923;28;20542;-74
2023/09/28 03:32:17;;;;;;;7.68;2.95;;;;;;;;;;5026877;28;20025;-74
2023/09/28 03:34:42;;;;;;;6.18;3.22;;;;;;;;;;5026051;28;20040;-74
2023/09/28 03:37:08;;;;;;;8.18;2.80;;;;;;;;;;5025964;28;20036;-74
2023/09/28 03:39:33;;;;;;;11.30;2.40;;;;;;;;;;5026161;28;20125;-74
2023/09/28 03:41:58;;;;;;;13.73;2.55;;;;;;;;;;5024207;28;20054;-74
2023/09/28 03:44:24;;;;;;;10.13;2.20;;;;;;;;;;5018506;28;20025;-73
2023/09/28 03:46:49;;;;;;;11.13;2.25;;;;;;;;;;5024301;28;20030;-74
2023/09/28 03:49:15;;;;;;;8.80;2.10;;;;;;;;;;5026246;28;20033;-74
2023/09/28 03:51:41;;;;;;;8.60;2.42;;;;;;;;;;5023986;28;20037;-74
2023/09/28 03:54:07;;;;;;;11.40;2.30;;;;;;;;;;5023908;28;20036;-74
2023/09/28 03:56:32;;;;;;;18.45;2.40;;;;;;;;;;5026186;28;20022;-74
2023/09/28 03:58:58;;;;;;;11.13;2.38;;;;;;;;;;5025871;28;20052;-74
2023/09/28 04:01:23;;;;;;;10.27;2.40;;;;;;;;;;5024262;28;20065;-74
2023/09/28 04:03:49;;;;;;;12.68;2.13;;;;;;;;;;5025845;28;20515;-74
2023/09/28 04:06:15;;;;;;;10.13;2.20;;;;;;;;;;5025962;28;20875;-74
2023/09/28 04:08:40;;;;;;;13.02;2.15;;;;;;;;;;5024563;28;20545;-74
2023/09/28 04:11:05;;;;;;;10.43;2.22;;;;;;;;;;5027570;28;20017;-74
2023/09/28 04:13:31;;;;;;;10.65;2.50;;;;;;;;;;5032882;28;20041;-74
2023/09/28 04:15:56;;;;;;;13.10;2.30;;;;;;;;;;5038679;28;20044;-74
2023/09/28 04:18:21;;;;;;;10.63;1.85;;;;;;;;;;5028112;28;20400;-74
2023/09/28 04:20:47;;;;;;;14.73;2.33;;;;;;;;;;5025152;28;20427;-74
2023/09/28 04:23:12;;;;;;;11.93;2.17;;;;;;;;;;5025219;28;20104;-74
2023/09/28 04:25:38;;;;;;;13.02;2.40;;;;;;;;;;5024966;28;20503;-74
2023/09/28 04:28:03;;;;;;;14.57;2.33;;;;;;;;;;5024984;28;20033;-73
2023/09/28 04:30:29;;;;;;;10.82;2.20;;;;;;;;;;5025414;28;20060;-74
2023/09/28 04:32:54;;;;;;;8.13;1.83;;;;;;;;;;5025247;28;20033;-74
2023/09/28 04:35:20;;;;;;;10.88;2.20;;;;;;;;;;5025437;28;20035;-74
2023/09/28 04:37:47;;;;;;;8.00;2.33;;;;;;;;;;5025519;28;20748;-73
2023/09/28 04:40:13;;;;;;;11.27;2.03;;;;;;;;;;5023727;28;20514;-74
2023/09/28 04:42:39;;;;;;;10.32;2.20;;;;;;;;;;5024912;28;20044;-73
2023/09/28 04:45:05;;;;;;;9.88;1.80;;;;;;;;;;5024139;28;20107;-74
2023/09/28 04:47:31;;;;;;;9.57;2.17;;;;;;;;;;5023659;28;20026;-74
2023/09/28 04:49:57;;;;;;;9.32;1.77;;;;;;;;;;5024683;28;20522;-73
2023/09/28 04:52:22;;;;;;;13.35;2.08;;;;;;;;;;5024971;28;20037;-74
2023/09/28 04:54:49;;;;;;;11.00;1.90;;;;;;;;;;5024440;28;20034;-74
2023/09/28 04:57:15;;;;;;;20.23;2.63;;;;;;;;;;5022036;28;20060;-73
2023/09/28 04:59:41;;;;;;;8.50;2.22;;;;;;;;;;5022650;28;20033;-74
2023/09/28 05:02:07;;;;;;;9.52;2.28;;;;;;;;;;5024081;28;20025;-74
2023/09/28 05:04:33;;;;;;;10.32;1.88;;;;;;;;;;5023914;28;20033;-74
2023/09/28 05:06:59;;;;;;;13.93;2.03;;;;;;;;;;5023030;28;20773;-73
2023/09/28 05:09:28;;;;;;;13.48;2.10;;;;;;;;;;5022723;28;20122;-74
2023/09/28 05:11:56;;;;;;;10.40;2.28;;;;;;;;;;5024215;28;20037;-74
2023/09/28 05:14:24;;;;;;;16.67;2.33;;;;;;;;;;5025136;28;20065;-74
2023/09/28 05:16:50;;;;;;;10.38;2.28;;;;;;;;;;5024007;28;20072;-74
2023/09/28 05:19:16;;;;;;;11.75;1.95;;;;;;;;;;5022624;28;20124;-74
2023/09/28 05:21:41;;;;;;;13.05;1.95;;;;;;;;;;5023909;28;20585;-74
2023/09/28 05:24:07;;;;;;;10.98;2.45;;;;;;;;;;5024479;28;20049;-74
2023/09/28 05:26:32;;;;;;;12.75;2.53;;;;;;;;;;5023885;28;20033;-74
2023/09/28 05:28:58;;;;;;;13.38;2.20;;;;;;;;;;5024510;28;20475;-74
2023/09/28 05:31:24;;;;;;;8.85;2.28;;;;;;;;;;5024685;28;20048;-74
2023/09/28 05:33:50;;;;;;;8.10;1.80;;;;;;;;;;5024234;28;20041;-76
2023/09/28 05:36:15;;;;;;;16.65;1.80;;;;;;;;;;5024083;28;20337;-74
2023/09/28 05:38:41;;;;;;;13.38;1.85;;;;;;;;;;5031415;28;20031;-74
2023/09/28 05:41:06;;;;;;;17.50;2.53;;;;;;;;;;5037136;28;20058;-74
2023/09/28 05:43:32;;;;;;;12.07;2.60;;;;;;;;;;5027820;28;20101;-74
2023/09/28 05:45:57;;;;;;;15.18;2.38;;;;;;;;;;5023029;28;20069;-74
2023/09/28 05:48:24;;;;;;;12.35;1.92;;;;;;;;;;5001027;28;20124;-74
2023/09/28 05:50:49;;;;;;;9.98;2.20;;;;;;;;;;5014457;28;20056;-74
2023/09/28 05:53:15;;;;;;;16.27;2.47;;;;;;;;;;5020173;28;20026;-74
2023/09/28 05:55:40;;;;;;;17.38;2.70;;;;;;;;;;5022932;28;20029;-74
2023/09/28 05:58:06;;;;;;;12.70;2.35;;;;;;;;;;5018193;28;20039;-74
2023/09/28 06:00:31;;;;;;;9.82;2.17;;;;;;;;;;5015002;28;20038;-74
2023/09/28 06:02:57;;;;;;;9.90;2.50;;;;;;;;;;5022866;28;20578;-74
2023/09/28 06:05:22;;;;;;;10.30;1.80;;;;;;;;;;5022741;28;20029;-74
2023/09/28 06:07:47;;;;;;;18.92;2.85;;;;;;;;;;5008269;28;20423;-74
2023/09/28 06:10:14;;;;;;;15.55;2.75;;;;;;;;;;5007918;28;20076;-74
2023/09/28 06:12:39;;;;;;;11.95;1.90;;;;;;;;;;5010084;28;20037;-74
2023/09/28 06:15:08;;;;;;;9.32;2.15;;;;;;;;;;5014748;28;20533;-74
2023/09/28 06:17:34;;;;;;;13.38;2.30;;;;;;;;;;5009144;28;20633;-74
2023/09/28 06:19:59;;;;;;;14.63;2.45;;;;;;;;;;5018552;28;20105;-74
2023/09/28 06:22:25;;;;;;;16.17;2.33;;;;;;;;;;5014717;28;20090;-74
2023/09/28 06:24:50;;;;;;;14.43;2.80;;;;;;;;;;5016451;28;20427;-74
2023/09/28 06:27:16;;;;;;;13.02;2.55;;;;;;;;;;5011256;28;20486;-74
2023/09/28 06:29:41;;;;;;;12.73;2.47;;;;;;;;;;5012780;28;20120;-74
2023/09/28 06:32:06;;;;;;;13.40;3.22;;;;;;;;;;5005070;28;21066;-74
2023/09/28 06:34:32;;;;;;;9.77;2.35;;;;;;;;;;5010447;28;20984;-74
2023/09/28 06:36:57;;;;;;;13.98;2.75;;;;;;;;;;5021473;28;20041;-74
2023/09/28 06:39:23;;;;;;;14.07;2.42;;;;;;;;;;5022984;28;20407;-74
2023/09/28 06:41:49;;;;;;;11.68;2.25;;;;;;;;;;5022460;28;20045;-74
2023/09/28 06:44:14;;;;;;;13.52;2.13;;;;;;;;;;5019828;28;20084;-74
2023/09/28 06:46:40;;;;;;;13.32;2.83;;;;;;;;;;5018404;28;20554;-74
2023/09/28 06:49:08;;;;;;;16.42;2.88;;;;;;;;;;5018722;28;20037;-74
2023/09/28 06:51:34;;;;;;;10.65;2.20;;;;;;;;;;5026791;28;20045;-74
2023/09/28 06:54:00;;;;;;;11.82;2.13;;;;;;;;;;5026651;28;20034;-74
2023/09/28 06:56:26;;;;;;;11.48;2.30;;;;;;;;;;5025191;28;20028;-74
2023/09/28 06:58:52;;;;;;;10.80;2.40;;;;;;;;;;5027466;28;20044;-74
2023/09/28 07:01:18;;;;;;;16.17;2.88;;;;;;;;;;5028691;28;20037;-74
2023/09/28 07:03:43;;;;;;;14.15;3.05;;;;;;;;;;5031631;28;20030;-74
2023/09/28 07:06:09;;;;;;;21.58;3.75;;;;;;;;;;5030563;28;20041;-72
2023/09/28 07:08:34;;;;;;;15.55;2.60;;;;;;;;;;5021778;28;20029;-72
2023/09/28 07:11:01;;;;;;;12.32;2.90;;;;;;;;;;5026610;28;20593;-73
2023/09/28 07:13:27;;;;;;;20.38;3.20;;;;;;;;;;5026654;28;20414;-74
2023/09/28 07:15:52;;;;;;;17.13;2.63;;;;;;;;;;5026208;28;20693;-73
2023/09/28 07:18:17;;;;;;;14.07;2.90;;;;;;;;;;5025203;28;20170;-73
2023/09/28 07:20:44;;;;;;;12.70;2.40;;;;;;;;;;5024739;28;20657;-74
2023/09/28 07:23:09;;;;;;;13.93;2.72;;;;;;;;;;5025511;28;20494;-74
2023/09/28 07:25:35;;;;;;;22.23;3.22;;;;;;;;;;5026075;28;20037;-74
2023/09/28 07:28:01;;;;;;;17.65;2.67;;;;;;;;;;5018727;28;20041;-73
2023/09/28 07:30:26;;;;;;;20.63;2.58;;;;;;;;;;5026378;28;20091;-74
2023/09/28 07:32:52;;;;;;;15.00;2.40;;;;;;;;;;5025730;28;20482;-73
2023/09/28 07:35:19;;;;;;;12.10;2.55;;;;;;;;;;5025363;28;20029;-73
2023/09/28 07:37:44;;;;;;;13.93;2.25;;;;;;;;;;5025419;28;20030;-73
2023/09/28 07:40:12;;;;;;;16.35;2.75;;;;;;;;;;5024016;28;20094;-74
2023/09/28 07:42:41;;;;;;;15.35;2.55;;;;;;;;;;5020212;28;20045;-74
2023/09/28 07:45:07;;;;;;;16.17;2.88;;;;;;;;;;5015474;28;20869;-74
2023/09/28 07:47:33;;;;;;;11.23;2.08;;;;;;;;;;5017788;28;20092;-74
2023/09/28 07:50:00;;;;;;;17.38;3.25;;;;;;;;;;5021624;28;20531;-74
2023/09/28 07:52:25;;;;;;;12.88;2.83;;;;;;;;;;5024921;28;20044;-73
2023/09/28 07:54:50;;;;;;;12.45;2.15;;;;;;;;;;5021968;28;20041;-74
2023/09/28 07:57:17;;;;;;;15.20;3.00;;;;;;;;;;5024909;28;20450;-74
2023/09/28 07:59:42;;;;;;;14.63;3.00;;;;;;;;;;5024821;28;20108;-74
2023/09/28 08:02:11;;;;;;;11.65;2.42;;;;;;;;;;5026453;28;20052;-73
2023/09/28 08:04:36;;;;;;;21.65;3.38;;;;;;;;;;5023578;28;20554;-74
2023/09/28 08:07:03;;;;;;;15.20;2.28;;;;;;;;;;5025583;28;20043;-74
2023/09/28 08:09:28;;;;;;;19.25;2.35;;;;;;;;;;5020599;28;20069;-74
2023/09/28 08:11:53;;;;;;;12.23;1.90;;;;;;;;;;5014910;28;20115;-73
2023/09/28 08:14:21;;;;;;;19.52;2.50;;;;;;;;;;5016777;28;20431;-73
2023/09/28 08:16:47;;;;;;;13.65;3.88;;;;;;;;;;5024158;28;20080;-74
2023/09/28 08:19:13;;;;;;;18.88;2.47;;;;;;;;;;5022667;28;20064;-74
2023/09/28 08:21:38;;;;;;;14.23;2.58;;;;;;;;;;5024149;28;20041;-73
2023/09/28 08:24:05;;;;;;;16.58;3.30;;;;;;;;;;5025800;28;20040;-73
2023/09/28 08:26:31;;;;;;;13.80;2.08;;;;;;;;;;5029202;28;20039;-73
2023/09/28 08:29:00;;;;;;;17.92;2.75;;;;;;;;;;5029607;28;20033;-73
2023/09/28 08:31:25;;;;;;;15.82;2.25;;;;;;;;;;5035830;28;20517;-73
2023/09/28 08:33:52;;;;;;;15.10;2.20;;;;;;;;;;5025995;28;20049;-73
2023/09/28 08:36:17;;;;;;;17.67;2.42;;;;;;;;;;5024955;28;20041;-73
2023/09/28 08:38:43;;;;;;;11.85;2.47;;;;;;;;;;5024635;28;20044;-73
2023/09/28 08:41:10;;;;;;;15.10;2.40;;;;;;;;;;5020833;28;20031;-73
2023/09/28 08:43:56;;;;;;;15.95;2.45;;;;;;;;;;5012050;28;20757;-73
2023/09/28 08:46:24;;;;;;;16.13;2.55;;;;;;;;;;5019796;28;20053;-73
2023/09/28 08:48:52;;;;;;;17.80;2.92;;;;;;;;;;5014608;28;20033;-73
2023/09/28 08:51:18;;;;;;;18.98;2.63;;;;;;;;;;5009567;28;20045;-73
2023/09/28 08:53:48;;;;;;;14.75;2.30;;;;;;;;;;5011440;28;20041;-73
2023/09/28 08:56:14;;;;;;;16.73;2.78;;;;;;;;;;5013324;28;20029;-73
2023/09/28 08:58:42;;;;;;;18.30;2.35;;;;;;;;;;5014542;28;20604;-73
2023/09/28 09:01:07;;;;;;;16.50;2.25;;;;;;;;;;5023696;28;20430;-73
2023/09/28 09:03:33;;;;;;;24.95;3.00;;;;;;;;;;5023942;28;20041;-73
2023/09/28 09:05:58;;;;;;;8.48;2.03;;;;;;;;;;5016986;28;20048;-72
2023/09/28 09:08:26;;;;;;;16.02;1.92;;;;;;;;;;5020316;28;20117;-73
2023/09/28 09:10:52;;;;;;;13.27;2.15;;;;;;;;;;5024125;28;20559;-74
2023/09/28 09:13:18;;;;;;;13.48;2.03;;;;;;;;;;5015405;28;20047;-74
2023/09/28 09:15:44;;;;;;;19.60;2.65;;;;;;;;;;5023423;28;20057;-73
2023/09/28 09:18:19;;;;;;;16.00;2.25;;;;;;;;;;5022929;28;20045;-72
2023/09/28 09:20:49;;;;;;;12.63;1.83;;;;;;;;;;5022981;28;20049;-74
2023/09/28 09:23:16;;;;;;;11.35;1.95;;;;;;;;;;5024362;28;20033;-73
2023/09/28 09:25:44;;;;;;;16.50;2.35;;;;;;;;;;5021945;28;20037;-73
2023/09/28 09:28:11;;;;;;;12.38;2.33;;;;;;;;;;5022247;28;20041;-73
2023/09/28 09:30:37;;;;;;;14.20;2.20;;;;;;;;;;5023233;28;20494;-73
2023/09/28 09:33:07;;;;;;;14.48;3.00;;;;;;;;;;5020110;28;20069;-73
2023/09/28 09:35:33;;;;;;;14.88;3.03;;;;;;;;;;5017620;28;20487;-73
2023/09/28 09:37:59;;;;;;;15.35;2.83;;;;;;;;;;5024043;28;20029;-72
2023/09/28 09:40:25;;;;;;;17.45;2.88;;;;;;;;;;5021388;28;20391;-74
2023/09/28 09:42:51;;;;;;;11.30;2.45;;;;;;;;;;5015165;28;20428;-74
2023/09/28 09:45:19;;;;;;;11.43;2.53;;;;;;;;;;5016295;28;20131;-73
2023/09/28 09:47:49;;;;;;;12.20;1.77;;;;;;;;;;5023711;28;20056;-74
2023/09/28 09:50:16;;;;;;;12.38;2.33;;;;;;;;;;5025496;28;20064;-74
2023/09/28 09:52:43;;;;;;;15.27;2.60;;;;;;;;;;5032583;28;20049;-74
2023/09/28 09:55:09;;;;;;;14.18;2.08;;;;;;;;;;5035768;28;20116;-74
2023/09/28 09:57:37;;;;;;;9.45;1.92;;;;;;;;;;5023293;28;20148;-74
2023/09/28 10:00:07;;;;;;;16.10;2.33;;;;;;;;;;5015907;28;20037;-74
2023/09/28 10:02:36;;;;;;;13.00;2.30;;;;;;;;;;5022841;28;20057;-74
2023/09/28 10:05:03;;;;;;;14.77;1.90;;;;;;;;;;5023110;28;20136;-74
2023/09/28 10:07:33;;;;;;;7.55;1.80;;;;;;;;;;5023423;28;20501;-74
2023/09/28 10:09:59;;;;;;;12.80;2.00;;;;;;;;;;5023095;28;20106;-74
2023/09/28 10:12:25;;;;;;;11.85;2.35;;;;;;;;;;5023093;28;20041;-74
2023/09/28 10:14:52;;;;;;;11.85;1.77;;;;;;;;;;5023304;28;20608;-74
2023/09/28 10:17:18;;;;;;;11.90;1.90;;;;;;;;;;5023120;28;20033;-73
2023/09/28 10:19:45;;;;;;;15.75;2.47;;;;;;;;;;5019804;28;20573;-74
2023/09/28 10:22:12;;;;;;;11.60;2.25;;;;;;;;;;5021708;28;20076;-74
2023/09/28 10:24:37;;;;;;;13.85;2.10;;;;;;;;;;5020939;28;20041;-74
2023/09/28 10:27:10;;;;;;;18.42;2.13;;;;;;;;;;5021305;28;20068;-74
2023/09/28 10:29:36;;;;;;;10.15;2.10;;;;;;;;;;5022740;28;20093;-74
2023/09/28 10:32:11;;;;;;;13.80;2.17;;;;;;;;;;5018715;28;20037;-74
2023/09/28 10:34:37;;;;;;;8.60;2.35;;;;;;;;;;5022498;28;20115;-74
2023/09/28 10:37:10;;;;;;;12.30;1.77;;;;;;;;;;5022524;28;20048;-74
2023/09/28 10:39:37;;;;;;;10.27;2.25;;;;;;;;;;5014923;28;20083;-74
2023/09/28 10:42:10;;;;;;;10.18;1.95;;;;;;;;;;5021133;28;20554;-74
2023/09/28 10:44:47;;;;;;;13.05;1.90;;;;;;;;;;5022619;28;20506;-73
2023/09/28 10:47:12;;;;;;;11.65;1.90;;;;;;;;;;5021619;28;20824;-74
2023/09/28 10:49:38;;;;;;;12.82;1.90;;;;;;;;;;5018243;28;20050;-74
2023/09/28 10:52:03;;;;;;;17.55;2.60;;;;;;;;;;5023191;28;20521;-74
2023/09/28 10:54:29;;;;;;;12.43;1.95;;;;;;;;;;5022343;28;20164;-74
2023/09/28 10:56:55;;;;;;;12.10;2.08;;;;;;;;;;5022009;28;20076;-74
2023/09/28 10:59:21;;;;;;;15.45;3.25;;;;;;;;;;5016882;28;20084;-74
2023/09/28 11:01:48;;;;;;;8.85;2.28;;;;;;;;;;5021204;28;20487;-74
2023/09/28 11:04:15;;;;;;;16.80;2.67;;;;;;;;;;5023161;28;20514;-73
2023/09/28 11:06:43;;;;;;;11.40;1.98;;;;;;;;;;5016759;28;20037;-73
2023/09/28 11:09:09;;;;;;;8.27;2.03;;;;;;;;;;5019952;28;20038;-73
2023/09/28 11:11:37;;;;;;;14.13;2.80;;;;;;;;;;5023453;28;20415;-74
2023/09/28 11:14:05;;;;;;;9.75;2.25;;;;;;;;;;5018441;28;20030;-74
2023/09/28 11:16:33;;;;;;;13.43;2.03;;;;;;;;;;5030456;28;20060;-74
2023/09/28 11:18:59;;;;;;;13.73;1.95;;;;;;;;;;5037986;28;20049;-74
2023/09/28 11:21:26;;;;;;;11.13;2.13;;;;;;;;;;5030897;28;20029;-74
2023/09/28 11:23:52;;;;;;;7.63;2.05;;;;;;;;;;5024411;28;20052;-74
2023/09/28 11:26:19;;;;;;;6.75;1.50;;;;;;;;;;5022700;28;20030;-74
2023/09/28 11:28:44;;;;;;;10.50;2.10;;;;;;;;;;5021300;28;20040;-73
2023/09/28 11:31:13;;;;;;;9.60;1.73;;;;;;;;;;5022485;28;20601;-74
2023/09/28 11:33:40;;;;;;;7.45;2.03;;;;;;;;;;5026004;28;20041;-74
2023/09/28 11:36:12;;;;;;;8.13;1.80;;;;;;;;;;5025607;28;20442;-74
2023/09/28 11:38:41;;;;;;;7.40;1.90;;;;;;;;;;5025847;28;20033;-74
2023/09/28 11:41:06;;;;;;;4.80;1.63;;;;;;;;;;5026511;28;20036;-74
2023/09/28 11:43:50;;;;;;;7.97;1.50;;;;;;;;;;5025987;28;20036;-75
2023/09/28 11:46:19;;;;;;;;;;;;;;;;;;5027302;28;20044;-74
2023/09/28 11:48:45;;;;;;;7.95;1.63;;;;;;;;;;5025043;28;19964;-74
2023/09/28 11:51:10;;;;;;;8.13;1.52;;;;;;;;;;5025954;28;20123;-74
2023/09/28 11:53:42;;;;;;;12.00;1.60;;;;;;;;;;5024320;28;20029;-74
2023/09/28 11:56:10;;;;;;;6.43;1.50;;;;;;;;;;5027016;28;20021;-73
2023/09/28 11:58:35;;;;;;;10.93;1.70;;;;;;;;;;5025472;28;20042;-74
2023/09/28 12:01:02;;;;;;;6.82;1.80;;;;;;;;;;5016474;28;20033;-73
2023/09/28 12:03:28;;;;;;;8.07;1.75;;;;;;;;;;5025070;28;20749;-74
2023/09/28 12:05:54;;;;;;;5.93;1.80;;;;;;;;;;5017368;28;20537;-74
2023/09/28 12:08:21;;;;;;;8.95;1.75;;;;;;;;;;5021745;28;20028;-74
2023/09/28 12:10:47;;;;;;;9.55;1.70;;;;;;;;;;5024094;28;20741;-73
2023/09/28 12:13:12;;;;;;;10.13;2.30;;;;;;;;;;5024144;28;20077;-74
2023/09/28 12:15:37;;;;;;;7.78;1.70;;;;;;;;;;5025302;28;20538;-74
2023/09/28 12:18:04;;;;;;;7.80;1.70;;;;;;;;;;5025342;28;20041;-74
2023/09/28 12:20:29;;;;;;;8.70;2.15;;;;;;;;;;5025159;28;20521;-74
2023/09/28 12:22:55;;;;;;;4.82;1.90;;;;;;;;;;5026122;28;20025;-74
2023/09/28 12:25:23;;;;;;;5.13;2.08;;;;;;;;;;5025516;28;20117;-74
2023/09/28 12:27:49;;;;;;;11.00;1.60;;;;;;;;;;5025274;28;20052;-74
2023/09/28 12:30:21;;;;;;;6.47;1.80;;;;;;;;;;5025206;28;20061;-74
2023/09/28 12:32:47;;;;;;;8.75;1.80;;;;;;;;;;5025354;28;20132;-74
2023/09/28 12:35:13;;;;;;;12.68;2.45;;;;;;;;;;5025617;28;20152;-74
2023/09/28 12:37:38;;;;;;;8.63;1.52;;;;;;;;;;5025986;28;20041;-74
2023/09/28 12:40:06;;;;;;;11.23;1.88;;;;;;;;;;5028349;28;20030;-74
2023/09/28 12:42:31;;;;;;;9.00;1.90;;;;;;;;;;5025027;28;20052;-74
2023/09/28 12:44:58;;;;;;;8.50;1.80;;;;;;;;;;5023113;28;20037;-74
2023/09/28 12:47:24;;;;;;;11.27;2.17;;;;;;;;;;5025509;28;20037;-74
2023/09/28 12:49:50;;;;;;;6.95;2.00;;;;;;;;;;5022712;28;20050;-74
2023/09/28 12:52:16;;;;;;;6.57;2.40;;;;;;;;;;5023310;28;20125;-74
2023/09/28 12:54:41;;;;;;;9.90;2.65;;;;;;;;;;5024162;28;20396;-74
2023/09/28 12:57:08;;;;;;;10.50;1.95;;;;;;;;;;5022806;28;20887;-74
2023/09/28 12:59:34;;;;;;;7.50;2.05;;;;;;;;;;5024279;28;20036;-74
2023/09/28 13:02:02;;;;;;;7.68;1.98;;;;;;;;;;5024516;28;20083;-74
2023/09/28 13:04:28;;;;;;;10.07;2.20;;;;;;;;;;5024155;28;20053;-74
2023/09/28 13:06:53;;;;;;;6.95;1.60;;;;;;;;;;5021182;28;20042;-74
2023/09/28 13:09:20;;;;;;;7.32;1.70;;;;;;;;;;5024693;28;20050;-74
2023/09/28 13:11:46;;;;;;;10.38;2.20;;;;;;;;;;5024163;28;20045;-74
2023/09/28 13:14:11;;;;;;;9.43;2.17;;;;;;;;;;5023939;28;20075;-74
2023/09/28 13:16:37;;;;;;;12.65;2.10;;;;;;;;;;5023617;28;20426;-74
2023/09/28 13:19:03;;;;;;;9.23;1.90;;;;;;;;;;5022912;28;20037;-74
2023/09/28 13:21:29;;;;;;;5.85;1.77;;;;;;;;;;5024672;28;20044;-74
2023/09/28 13:23:54;;;;;;;7.07;1.80;;;;;;;;;;5023969;28;20041;-75
2023/09/28 13:26:24;;;;;;;6.75;1.75;;;;;;;;;;5023423;28;20487;-74
2023/09/28 13:28:54;;;;;;;6.20;2.30;;;;;;;;;;5023840;28;20052;-75
2023/09/28 13:31:23;;;;;;;8.10;2.03;;;;;;;;;;5023839;28;20453;-75
2023/09/28 13:33:49;;;;;;;7.57;2.05;;;;;;;;;;5016062;28;20041;-74
2023/09/28 13:36:15;;;;;;;8.45;2.30;;;;;;;;;;5023146;28;20037;-74
2023/09/28 13:38:42;;;;;;;5.40;1.80;;;;;;;;;;5023632;28;20033;-74
2023/09/28 13:41:09;;;;;;;9.93;1.98;;;;;;;;;;5024358;28;20033;-74
2023/09/28 13:43:34;;;;;;;7.32;2.10;;;;;;;;;;5023919;28;20099;-74
2023/09/28 13:46:00;;;;;;;8.07;2.00;;;;;;;;;;5023744;28;20033;-74
2023/09/28 13:48:28;;;;;;;7.80;2.40;;;;;;;;;;5024122;28;20430;-74
2023/09/28 13:50:55;;;;;;;11.48;2.08;;;;;;;;;;5023580;28;20065;-74
2023/09/28 13:53:20;;;;;;;7.55;2.33;;;;;;;;;;5023619;28;20122;-74
2023/09/28 13:55:49;;;;;;;5.72;1.65;;;;;;;;;;5023959;28;20426;-74
2023/09/28 13:58:16;;;;;;;6.22;2.17;;;;;;;;;;5024339;28;20044;-74
2023/09/28 14:00:45;;;;;;;5.88;2.10;;;;;;;;;;5024337;28;20652;-74
2023/09/28 14:03:10;;;;;;;9.15;2.17;;;;;;;;;;5024840;28;20037;-74
2023/09/28 14:05:36;;;;;;;6.85;2.42;;;;;;;;;;5029094;28;20120;-75
2023/09/28 14:08:03;;;;;;;7.80;2.00;;;;;;;;;;5036782;28;20037;-74
2023/09/28 14:10:29;;;;;;;11.32;2.28;;;;;;;;;;5028893;28;20102;-74
2023/09/28 14:12:57;;;;;;;7.28;1.90;;;;;;;;;;5020601;28;20064;-74
2023/09/28 14:15:22;;;;;;;9.77;1.98;;;;;;;;;;5017784;28;20040;-74
2023/09/28 14:17:48;;;;;;;6.50;1.95;;;;;;;;;;5022454;28;20052;-75
2023/09/28 14:20:15;;;;;;;5.72;1.98;;;;;;;;;;5021982;28;20059;-75
2023/09/28 14:22:44;;;;;;;8.32;1.77;;;;;;;;;;5020082;28;20072;-75
2023/09/28 14:25:10;;;;;;;8.82;2.40;;;;;;;;;;5015834;28;20510;-74
2023/09/28 14:27:36;;;;;;;7.97;1.98;;;;;;;;;;5012885;28;20042;-75
2023/09/28 14:30:08;;;;;;;12.80;2.45;;;;;;;;;;5013370;28;20044;-75
2023/09/28 14:32:39;;;;;;;7.88;2.28;;;;;;;;;;5015045;28;20224;-75
2023/09/28 14:35:05;;;;;;;9.32;2.40;;;;;;;;;;5013420;28;20029;-74